createdAt,value
2019-02-07T00:01:27.034Z,4.70
2019-02-07T00:03:55.704Z,4.60
2019-02-07T00:06:23.697Z,4.60
2019-02-07T00:08:52.224Z,4.60
2019-02-07T00:11:20.564Z,4.60
2019-02-07T00:13:49.353Z,4.50
2019-02-07T00:16:17.590Z,4.50
2019-02-07T00:18:45.857Z,4.60
2019-02-07T00:21:13.959Z,4.60
2019-02-07T00:23:42.103Z,4.60
2019-02-07T00:26:10.393Z,4.60
2019-02-07T00:28:39.062Z,4.50
2019-02-07T00:31:07.493Z,4.50
2019-02-07T00:33:35.797Z,4.50
2019-02-07T00:36:04.455Z,4.50
2019-02-07T00:38:33.162Z,4.50
2019-02-07T00:41:01.277Z,4.50
2019-02-07T00:43:29.742Z,4.60
2019-02-07T00:45:58.310Z,4.60
2019-02-07T00:48:26.685Z,4.60
2019-02-07T00:50:54.862Z,4.60
2019-02-07T00:53:22.839Z,4.60
2019-02-07T00:55:51.245Z,4.60
2019-02-07T00:58:19.410Z,4.60
2019-02-07T01:00:48.179Z,4.60
2019-02-07T01:03:16.029Z,4.60
2019-02-07T01:05:44.737Z,4.60
2019-02-07T01:08:13.076Z,4.60
2019-02-07T01:10:41.259Z,4.60
2019-02-07T01:13:09.240Z,4.60
2019-02-07T01:15:37.541Z,4.50
2019-02-07T01:18:05.618Z,4.40
2019-02-07T01:20:34.102Z,4.40
2019-02-07T01:23:02.478Z,4.40
2019-02-07T01:25:30.526Z,4.40
2019-02-07T01:27:58.902Z,4.50
2019-02-07T01:30:27.179Z,4.60
2019-02-07T01:32:55.311Z,4.70
2019-02-07T01:35:23.973Z,4.80
2019-02-07T01:37:53.013Z,4.80
2019-02-07T01:40:21.985Z,4.90
2019-02-07T01:42:50.776Z,4.90
2019-02-07T01:45:19.775Z,5.00
2019-02-07T01:47:48.214Z,5.00
2019-02-07T01:50:18.197Z,5.00
2019-02-07T01:52:46.593Z,5.10
2019-02-07T01:55:14.790Z,5.10
2019-02-07T01:57:43.421Z,5.10
2019-02-07T02:00:13.568Z,5.20
2019-02-07T02:02:41.433Z,5.20
2019-02-07T02:05:10.734Z,5.20
2019-02-07T02:07:39.524Z,5.20
2019-02-07T02:10:11.177Z,5.20
2019-02-07T02:12:39.536Z,5.20
2019-02-07T02:15:08.352Z,5.20
2019-02-07T02:17:36.294Z,5.30
2019-02-07T02:20:05.464Z,5.20
2019-02-07T02:22:33.709Z,5.30
2019-02-07T02:25:02.167Z,5.30
2019-02-07T02:27:30.262Z,5.30
2019-02-07T02:29:58.790Z,5.30
2019-02-07T02:32:27.235Z,5.30
2019-02-07T02:34:55.871Z,5.30
2019-02-07T02:37:24.670Z,5.30
2019-02-07T02:39:53.258Z,5.30
2019-02-07T02:42:21.542Z,5.30
2019-02-07T02:44:49.757Z,5.40
2019-02-07T02:47:18.150Z,5.40
2019-02-07T02:49:46.770Z,5.30
2019-02-07T02:52:15.480Z,5.30
2019-02-07T02:54:51.094Z,5.30
2019-02-07T02:57:19.743Z,5.30
2019-02-07T02:59:48.379Z,5.30
2019-02-07T03:02:38.612Z,5.30
2019-02-07T03:05:25.574Z,5.20
2019-02-07T03:08:22.278Z,5.20
2019-02-07T03:11:13.637Z,5.30
2019-02-07T03:14:10.573Z,5.30
2019-02-07T03:17:16.697Z,5.20
2019-02-07T03:20:08.121Z,5.10
2019-02-07T03:22:56.042Z,5.00
2019-02-07T03:25:55.240Z,5.00
2019-02-07T03:28:45.265Z,4.90
2019-02-07T03:31:30.784Z,4.80
2019-02-07T03:34:22.143Z,4.80
2019-02-07T03:37:07.050Z,4.70
2019-02-07T03:39:46.277Z,4.70
2019-02-07T03:42:33.890Z,4.70
2019-02-07T03:45:27.045Z,4.70
2019-02-07T03:48:20.818Z,4.70
2019-02-07T03:51:09.475Z,4.70
2019-02-07T03:54:00.292Z,4.70
2019-02-07T03:56:50.932Z,4.70
2019-02-07T03:59:53.613Z,4.80
2019-02-07T04:02:40.796Z,4.80
2019-02-07T04:05:43.502Z,4.80
2019-02-07T04:08:29.972Z,4.80
2019-02-07T04:11:20.411Z,4.80
2019-02-07T04:13:59.839Z,4.90
2019-02-07T04:16:41.401Z,4.90
2019-02-07T04:19:27.470Z,4.90
2019-02-07T04:22:17.582Z,5.00
2019-02-07T04:25:10.166Z,5.10
2019-02-07T04:28:07.377Z,5.10
2019-02-07T04:30:59.297Z,5.20
2019-02-07T04:33:50.515Z,5.20
2019-02-07T04:36:42.887Z,5.20
2019-02-07T04:39:27.991Z,5.30
2019-02-07T04:42:04.867Z,5.40
2019-02-07T04:44:50.807Z,5.40
2019-02-07T04:47:31.707Z,5.40
2019-02-07T04:50:31.482Z,5.40
2019-02-07T04:53:34.638Z,5.40
2019-02-07T04:56:20.757Z,5.40
2019-02-07T04:59:14.909Z,5.40
2019-02-07T05:02:05.293Z,5.30
2019-02-07T05:04:59.701Z,5.40
2019-02-07T05:07:46.173Z,5.40
2019-02-07T05:10:33.408Z,5.50
2019-02-07T05:13:23.962Z,5.50
2019-02-07T05:16:17.679Z,5.50
2019-02-07T05:19:13.845Z,5.50
2019-02-07T05:21:57.110Z,5.50
2019-02-07T05:24:43.269Z,5.50
2019-02-07T05:27:31.441Z,5.50
2019-02-07T05:30:17.697Z,5.40
2019-02-07T05:32:58.939Z,5.40
2019-02-07T05:35:56.347Z,5.40
2019-02-07T05:38:43.890Z,5.40
2019-02-07T05:41:27.796Z,5.40
2019-02-07T05:44:14.879Z,5.50
2019-02-07T05:47:08.003Z,5.50
2019-02-07T05:50:04.968Z,5.50
2019-02-07T05:52:46.038Z,5.50
2019-02-07T05:55:42.632Z,5.50
2019-02-07T05:58:28.847Z,5.50
2019-02-07T06:01:28.095Z,5.50
2019-02-07T06:04:04.745Z,5.60
2019-02-07T06:06:45.137Z,5.60
2019-02-07T06:09:37.860Z,5.60
2019-02-07T06:12:24.169Z,5.60
2019-02-07T06:15:11.488Z,5.60
2019-02-07T06:18:05.012Z,5.60
2019-02-07T06:20:52.089Z,5.50
2019-02-07T06:23:58.208Z,5.50
2019-02-07T06:26:39.203Z,5.50
2019-02-07T06:29:22.627Z,5.60
2019-02-07T06:32:11.690Z,5.60
2019-02-07T06:35:01.991Z,5.70
2019-02-07T06:37:49.335Z,5.70
2019-02-07T06:40:40.991Z,5.80
2019-02-07T06:43:40.632Z,5.80
2019-02-07T06:46:31.331Z,5.80
2019-02-07T06:49:19.314Z,5.90
2019-02-07T06:52:14.631Z,5.90
2019-02-07T06:54:56.266Z,5.90
2019-02-07T06:57:40.890Z,5.90
2019-02-07T07:00:47.122Z,5.90
2019-02-07T07:03:33.358Z,6.00
2019-02-07T07:06:32.698Z,6.00
2019-02-07T07:09:20.566Z,6.00
2019-02-07T07:12:23.113Z,6.00
2019-02-07T07:15:13.459Z,6.00
2019-02-07T07:18:00.539Z,6.10
2019-02-07T07:21:03.627Z,6.20
2019-02-07T07:23:49.869Z,6.20
2019-02-07T07:26:37.717Z,6.20
2019-02-07T07:29:17.231Z,6.20
2019-02-07T07:32:03.473Z,6.30
2019-02-07T07:34:54.257Z,6.30
2019-02-07T07:37:50.893Z,6.40
2019-02-07T07:40:36.916Z,6.30
2019-02-07T07:43:24.263Z,6.30
2019-02-07T07:46:07.703Z,6.40
2019-02-07T07:48:57.010Z,6.50
2019-02-07T07:51:50.879Z,6.60
2019-02-07T07:54:33.111Z,6.60
2019-02-07T07:57:29.438Z,6.60
2019-02-07T08:00:26.475Z,6.60
2019-02-07T08:03:15.640Z,6.70
2019-02-07T08:06:15.665Z,6.70
2019-02-07T08:09:00.251Z,6.70
2019-02-07T08:11:48.055Z,6.80
2019-02-07T08:14:37.306Z,6.90
2019-02-07T08:17:16.737Z,6.90
2019-02-07T08:20:07.264Z,6.90
2019-02-07T08:23:09.745Z,6.80
2019-02-07T08:25:55.896Z,6.80
2019-02-07T08:28:43.790Z,6.80
2019-02-07T08:31:30.163Z,6.70
2019-02-07T08:34:20.535Z,6.80
2019-02-07T08:37:07.403Z,6.70
2019-02-07T08:39:53.542Z,6.80
2019-02-07T08:42:42.935Z,6.70
2019-02-07T08:45:29.519Z,6.70
2019-02-07T08:48:20.735Z,6.70
2019-02-07T08:51:20.434Z,6.70
2019-02-07T08:54:10.738Z,7.00
2019-02-07T08:56:58.866Z,7.40
2019-02-07T08:59:46.214Z,7.80
2019-02-07T09:02:51.530Z,8.10
2019-02-07T09:05:52.175Z,8.20
2019-02-07T09:08:51.895Z,8.30
2019-02-07T09:12:00.047Z,8.40
2019-02-07T09:14:56.492Z,8.50
2019-02-07T09:17:51.558Z,8.60
2019-02-07T09:24:14.157Z,8.80
2019-02-07T09:27:20.693Z,9.20
2019-02-07T09:30:06.755Z,9.40
2019-02-07T09:32:54.883Z,9.80
2019-02-07T09:35:39.997Z,10.00
2019-02-07T09:38:27.833Z,9.90
2019-02-07T09:41:14.243Z,9.80
2019-02-07T09:43:58.165Z,9.70
2019-02-07T09:46:45.788Z,9.80
2019-02-07T09:49:31.207Z,9.90
2019-02-07T09:52:18.329Z,10.00
2019-02-07T09:54:59.324Z,10.00
2019-02-07T09:57:47.148Z,9.90
2019-02-07T10:00:33.684Z,9.90
2019-02-07T10:03:26.477Z,10.00
2019-02-07T10:06:29.216Z,10.20
2019-02-07T10:09:19.935Z,10.50
2019-02-07T10:12:16.403Z,10.70
2019-02-07T10:15:22.072Z,10.80
2019-02-07T10:18:01.697Z,11.00
2019-02-07T10:20:49.492Z,11.10
2019-02-07T10:23:46.610Z,11.00
2019-02-07T10:26:46.086Z,11.20
2019-02-07T10:29:48.730Z,11.40
2019-02-07T10:32:35.618Z,11.50
2019-02-07T10:35:24.581Z,11.60
2019-02-07T10:38:11.114Z,11.70
2019-02-07T10:41:05.574Z,11.80
2019-02-07T10:44:02.015Z,11.90
2019-02-07T10:46:56.320Z,11.90
2019-02-07T10:49:59.274Z,12.00
2019-02-07T10:52:40.085Z,11.90
2019-02-07T10:55:27.472Z,12.00
2019-02-07T10:58:13.873Z,11.90
2019-02-07T11:01:00.649Z,12.10
2019-02-07T11:03:42.048Z,12.10
2019-02-07T11:06:28.283Z,12.40
2019-02-07T11:09:04.827Z,12.80
2019-02-07T11:12:04.642Z,13.00
2019-02-07T11:15:01.664Z,13.10
2019-02-07T11:17:48.283Z,13.50
2019-02-07T11:20:42.327Z,13.90
2019-02-07T11:23:30.017Z,14.40
2019-02-07T11:26:43.906Z,14.90
2019-02-07T11:29:31.250Z,14.60
2019-02-07T11:32:27.949Z,14.60
2019-02-07T11:35:27.513Z,14.80
2019-02-07T11:38:27.232Z,14.60
2019-02-07T11:41:08.733Z,13.80
2019-02-07T11:44:04.985Z,13.20
2019-02-07T11:47:05.135Z,12.10
2019-02-07T11:49:39.656Z,10.50
2019-02-07T11:52:43.135Z,9.90
2019-02-07T11:55:33.657Z,9.30
2019-02-07T11:58:09.888Z,8.80
2019-02-07T12:00:52.486Z,8.60
2019-02-07T12:03:39.941Z,8.30
2019-02-07T12:06:40.922Z,8.10
2019-02-07T12:09:29.027Z,8.00
2019-02-07T12:12:22.609Z,7.80
2019-02-07T12:15:13.588Z,7.80
2019-02-07T12:17:59.789Z,7.70
2019-02-07T12:20:45.951Z,7.60
2019-02-07T12:23:36.315Z,7.70
2019-02-07T12:26:23.857Z,7.80
2019-02-07T12:29:29.418Z,7.80
2019-02-07T12:32:15.958Z,7.70
2019-02-07T12:35:21.336Z,7.70
2019-02-07T12:38:04.782Z,7.80
2019-02-07T12:40:51.613Z,7.80
2019-02-07T12:43:37.508Z,7.80
2019-02-07T12:46:24.822Z,7.90
2019-02-07T12:49:29.344Z,7.80
2019-02-07T12:52:13.159Z,7.90
2019-02-07T12:55:01.011Z,8.00
2019-02-07T12:57:54.181Z,7.80
2019-02-07T13:00:48.152Z,7.80
2019-02-07T13:03:33.935Z,7.90
2019-02-07T13:06:22.232Z,7.90
2019-02-07T13:09:01.762Z,8.00
2019-02-07T13:11:49.049Z,8.30
2019-02-07T13:14:31.569Z,8.30
2019-02-07T13:17:16.139Z,8.20
2019-02-07T13:20:02.632Z,8.20
2019-02-07T13:22:48.916Z,8.20
2019-02-07T13:25:43.619Z,8.30
2019-02-07T13:28:34.187Z,8.40
2019-02-07T13:31:21.090Z,8.60
2019-02-07T13:34:27.313Z,8.80
2019-02-07T13:37:14.332Z,8.90
2019-02-07T13:40:01.018Z,8.80
2019-02-07T13:42:47.668Z,8.90
2019-02-07T13:45:34.645Z,9.00
2019-02-07T13:48:21.174Z,9.00
2019-02-07T13:51:07.909Z,9.10
2019-02-07T13:53:46.958Z,9.10
2019-02-07T13:56:40.599Z,9.30
2019-02-07T13:59:26.194Z,9.60
2019-02-07T14:02:14.423Z,9.60
2019-02-07T14:05:02.074Z,9.60
2019-02-07T14:07:55.233Z,10.00
2019-02-07T14:10:40.443Z,9.90
2019-02-07T14:13:20.194Z,10.10
2019-02-07T14:16:19.714Z,10.40
2019-02-07T14:19:16.081Z,10.50
2019-02-07T14:22:03.668Z,10.70
2019-02-07T14:24:50.321Z,10.70
2019-02-07T14:27:37.753Z,10.80
2019-02-07T14:30:20.396Z,10.70
2019-02-07T14:33:14.511Z,10.50
2019-02-07T14:36:17.950Z,10.50
2019-02-07T14:39:00.888Z,10.50
2019-02-07T14:41:42.516Z,10.40
2019-02-07T14:44:26.725Z,10.40
2019-02-07T14:46:55.178Z,10.50
2019-02-07T14:49:23.998Z,10.40
2019-02-07T14:51:52.834Z,10.30
2019-02-07T14:54:21.154Z,10.20
2019-02-07T14:56:49.877Z,10.10
2019-02-07T14:59:18.478Z,10.10
2019-02-07T15:01:47.633Z,10.10
2019-02-07T15:04:15.598Z,10.10
2019-02-07T15:06:44.056Z,10.20
2019-02-07T15:09:15.422Z,10.20
2019-02-07T15:11:43.896Z,10.20
2019-02-07T15:14:12.255Z,10.30
2019-02-07T15:16:40.286Z,10.40
2019-02-07T15:19:08.762Z,10.40
2019-02-07T15:21:37.729Z,10.50
2019-02-07T15:24:08.367Z,10.40
2019-02-07T15:26:37.215Z,10.40
2019-02-07T15:29:06.059Z,10.30
2019-02-07T15:31:34.489Z,10.40
2019-02-07T15:34:03.511Z,10.40
2019-02-07T15:36:33.255Z,10.30
2019-02-07T15:39:02.187Z,10.30
2019-02-07T15:41:30.474Z,10.20
2019-02-07T15:43:58.629Z,10.20
2019-02-07T15:46:27.519Z,10.10
2019-02-07T15:48:56.209Z,10.10
2019-02-07T15:51:24.532Z,10.10
2019-02-07T15:53:52.703Z,10.00
2019-02-07T15:56:21.599Z,9.90
2019-02-07T15:59:14.319Z,9.70
2019-02-07T16:01:52.108Z,9.70
2019-02-07T16:04:26.787Z,9.60
2019-02-07T16:06:59.594Z,9.60
2019-02-07T16:09:28.429Z,9.60
2019-02-07T16:11:58.445Z,9.40
2019-02-07T16:14:26.985Z,9.30
2019-02-07T16:16:55.202Z,9.20
2019-02-07T16:19:24.290Z,9.10
2019-02-07T16:21:52.204Z,9.00
2019-02-07T16:24:20.651Z,8.90
2019-02-07T16:26:48.862Z,8.80
2019-02-07T16:29:17.612Z,8.60
2019-02-07T16:31:45.669Z,8.50
2019-02-07T16:34:13.734Z,8.40
2019-02-07T16:36:42.153Z,8.20
2019-02-07T16:39:10.726Z,7.90
2019-02-07T16:41:38.900Z,7.70
2019-02-07T16:44:07.557Z,7.50
2019-02-07T16:46:43.489Z,7.30
2019-02-07T16:49:11.988Z,7.30
2019-02-07T16:51:40.783Z,7.40
2019-02-07T16:54:09.674Z,7.40
2019-02-07T16:56:37.885Z,7.30
2019-02-07T16:59:06.276Z,7.20
2019-02-07T17:01:34.304Z,7.10
2019-02-07T17:04:02.317Z,6.90
2019-02-07T17:06:30.136Z,6.60
2019-02-07T17:08:57.901Z,6.50
2019-02-07T17:11:26.373Z,6.40
2019-02-07T17:13:54.356Z,6.30
2019-02-07T17:16:22.855Z,6.20
2019-02-07T17:18:51.489Z,6.10
2019-02-07T17:21:20.610Z,6.10
2019-02-07T17:23:48.807Z,6.00
2019-02-07T17:26:17.189Z,5.80
2019-02-07T17:28:45.750Z,5.80
2019-02-07T17:31:14.134Z,5.70
2019-02-07T17:33:42.921Z,5.70
2019-02-07T17:36:10.985Z,5.60
2019-02-07T17:38:39.449Z,5.60
2019-02-07T17:41:08.152Z,5.40
2019-02-07T17:43:36.128Z,5.40
2019-02-07T17:46:04.490Z,5.30
2019-02-07T17:48:33.250Z,5.30
2019-02-07T17:51:01.601Z,5.50
2019-02-07T17:53:30.345Z,5.50
2019-02-07T17:55:58.945Z,5.40
2019-02-07T17:58:27.046Z,5.20
2019-02-07T18:01:05.746Z,5.10
2019-02-07T18:03:34.009Z,5.00
2019-02-07T18:06:02.000Z,4.90
2019-02-07T18:08:30.370Z,4.80
2019-02-07T18:10:59.080Z,4.80
2019-02-07T18:13:45.725Z,4.70
2019-02-07T18:16:14.445Z,4.70
2019-02-07T18:18:42.955Z,4.60
2019-02-07T18:21:11.317Z,4.50
2019-02-07T18:23:39.945Z,4.50
2019-02-07T18:26:10.372Z,4.40
2019-02-07T18:28:39.192Z,4.50
2019-02-07T18:31:07.564Z,4.40
2019-02-07T18:33:36.528Z,4.30
2019-02-07T18:36:04.216Z,4.30
2019-02-07T18:38:32.674Z,4.30
2019-02-07T18:41:00.760Z,4.30
2019-02-07T18:43:29.134Z,4.30
2019-02-07T18:45:57.252Z,4.30
2019-02-07T18:48:25.401Z,4.40
2019-02-07T18:50:53.523Z,4.40
2019-02-07T18:53:21.752Z,4.40
2019-02-07T18:55:49.802Z,4.40
2019-02-07T18:58:18.013Z,4.40
2019-02-07T19:00:45.953Z,4.50
2019-02-07T19:03:14.086Z,4.50
2019-02-07T19:05:42.409Z,4.50
2019-02-07T19:08:11.076Z,4.40
2019-02-07T19:10:40.784Z,4.40
2019-02-07T19:13:08.751Z,4.30
2019-02-07T19:15:45.904Z,4.20
2019-02-07T19:18:14.101Z,4.10
2019-02-07T19:20:42.918Z,4.00
2019-02-07T19:23:11.682Z,3.90
2019-02-07T19:25:41.105Z,3.80
2019-02-07T19:28:09.030Z,3.70
2019-02-07T19:30:37.149Z,3.70
2019-02-07T19:33:05.413Z,3.70
2019-02-07T19:35:33.774Z,3.70
2019-02-07T19:38:01.822Z,3.60
2019-02-07T19:40:30.605Z,3.60
2019-02-07T19:42:58.842Z,3.60
2019-02-07T19:45:27.120Z,3.60
2019-02-07T19:47:55.204Z,3.60
2019-02-07T19:50:24.186Z,3.60
2019-02-07T19:52:52.886Z,3.60
2019-02-07T19:55:23.025Z,3.50
2019-02-07T19:57:51.550Z,3.60
2019-02-07T20:00:25.392Z,3.60
2019-02-07T20:02:53.765Z,3.60
2019-02-07T20:05:22.133Z,3.60
2019-02-07T20:07:50.107Z,3.60
2019-02-07T20:10:19.866Z,3.60
2019-02-07T20:12:47.794Z,3.50
2019-02-07T20:15:19.925Z,3.50
2019-02-07T20:17:48.179Z,3.40
2019-02-07T20:20:16.725Z,3.30
2019-02-07T20:22:46.176Z,3.30
2019-02-07T20:25:14.813Z,3.20
2019-02-07T20:27:42.881Z,3.10
2019-02-07T20:30:31.429Z,3.10
2019-02-07T20:32:59.271Z,3.10
2019-02-07T20:35:27.453Z,3.20
2019-02-07T20:37:55.762Z,3.20
2019-02-07T20:40:24.779Z,3.20
2019-02-07T20:42:53.134Z,3.20
2019-02-07T20:45:22.405Z,3.30
2019-02-07T20:47:50.462Z,3.30
2019-02-07T20:50:22.991Z,3.40
2019-02-07T20:52:51.609Z,3.40
2019-02-07T20:55:20.322Z,3.40
2019-02-07T20:57:48.381Z,3.40
2019-02-07T21:00:36.212Z,3.40
2019-02-07T21:03:04.461Z,3.40
2019-02-07T21:05:32.965Z,3.40
2019-02-07T21:08:01.883Z,3.40
2019-02-07T21:10:30.961Z,3.40
2019-02-07T21:12:59.041Z,3.30
2019-02-07T21:15:27.499Z,3.30
2019-02-07T21:17:55.575Z,3.20
2019-02-07T21:20:25.063Z,3.20
2019-02-07T21:22:54.029Z,3.20
2019-02-07T21:25:27.085Z,3.30
2019-02-07T21:27:54.986Z,3.30
2019-02-07T21:30:24.947Z,3.30
2019-02-07T21:32:54.101Z,3.20
2019-02-07T21:35:22.527Z,3.30
2019-02-07T21:37:51.122Z,3.20
2019-02-07T21:40:21.483Z,3.20
2019-02-07T21:42:49.496Z,3.10
2019-02-07T21:45:18.498Z,3.00
2019-02-07T21:47:47.175Z,3.00
2019-02-07T21:50:19.766Z,3.00
2019-02-07T21:52:48.246Z,2.90
2019-02-07T21:55:17.495Z,2.90
2019-02-07T21:57:45.743Z,3.00
2019-02-07T22:00:16.348Z,3.00
2019-02-07T22:02:45.524Z,3.10
2019-02-07T22:05:13.734Z,3.10
2019-02-07T22:07:41.985Z,3.10
2019-02-07T22:10:10.968Z,3.00
2019-02-07T22:12:39.255Z,3.00
2019-02-07T22:15:09.756Z,3.00
2019-02-07T22:17:37.576Z,3.10
2019-02-07T22:20:09.612Z,3.20
2019-02-07T22:22:37.701Z,3.20
2019-02-07T22:25:06.147Z,3.10
2019-02-07T22:27:34.979Z,3.10
2019-02-07T22:30:04.983Z,3.10
2019-02-07T22:32:33.344Z,3.10
2019-02-07T22:35:01.438Z,3.10
2019-02-07T22:37:30.126Z,3.10
2019-02-07T22:39:58.189Z,3.00
2019-02-07T22:42:26.253Z,3.10
2019-02-07T22:44:54.326Z,3.10
2019-02-07T22:47:22.415Z,3.10
2019-02-07T22:49:50.573Z,3.20
2019-02-07T22:52:18.772Z,3.20
2019-02-07T22:54:46.604Z,3.20
2019-02-07T22:57:14.674Z,3.10
2019-02-07T22:59:43.890Z,3.10
2019-02-07T23:02:11.962Z,3.10
2019-02-07T23:04:40.144Z,3.10
2019-02-07T23:07:08.585Z,3.10
2019-02-07T23:09:37.217Z,3.10
2019-02-07T23:12:05.878Z,3.10
2019-02-07T23:14:34.363Z,3.00
2019-02-07T23:17:02.818Z,3.00
2019-02-07T23:19:30.841Z,3.00
2019-02-07T23:21:58.834Z,3.10
2019-02-07T23:24:26.970Z,3.10
2019-02-07T23:26:55.220Z,3.00
2019-02-07T23:29:23.410Z,3.00
2019-02-07T23:31:51.498Z,3.00
2019-02-07T23:34:19.502Z,2.90
2019-02-07T23:36:47.634Z,2.90
2019-02-07T23:39:15.905Z,2.90
2019-02-07T23:41:44.900Z,2.90
2019-02-07T23:44:13.050Z,2.90
2019-02-07T23:46:41.363Z,2.80
2019-02-07T23:49:09.705Z,2.80
2019-02-07T23:51:38.112Z,2.70
2019-02-07T23:54:06.479Z,2.60
2019-02-07T23:56:34.539Z,2.60
2019-02-07T23:59:03.055Z,2.50
